sensor_id;sensor_type;location;lat;lon;timestamp;pressure;altitude;pressure_sealevel;temperature;humidity
46944;BME280;32678;43.852;25.952;2022-11-30T00:01:07;101918.28;;;5.36;100.00
46944;BME280;32678;43.852;25.952;2022-11-30T00:06:06;101931.41;;;5.56;100.00
46944;BME280;32678;43.852;25.952;2022-11-30T00:11:08;101934.78;;;5.44;100.00
46944;BME280;32678;43.852;25.952;2022-11-30T00:16:05;101934.69;;;5.29;100.00
46944;BME280;32678;43.852;25.952;2022-11-30T00:21:03;101937.28;;;5.28;100.00
46944;BME280;32678;43.852;25.952;2022-11-30T00:26:01;101940.88;;;5.42;100.00
46944;BME280;32678;43.852;25.952;2022-11-30T00:31:03;101928.66;;;5.35;99.89
46944;BME280;32678;43.852;25.952;2022-11-30T00:36:04;101932.09;;;5.29;100.00
46944;BME280;32678;43.852;25.952;2022-11-30T00:41:01;101931.22;;;5.29;99.59
46944;BME280;32678;43.852;25.952;2022-11-30T00:45:59;101931.09;;;5.13;100.00
46944;BME280;32678;43.852;25.952;2022-11-30T00:51:00;101930.34;;;5.28;100.00
46944;BME280;32678;43.852;25.952;2022-11-30T00:55:59;101933.94;;;5.42;99.92
46944;BME280;32678;43.852;25.952;2022-11-30T01:00:56;101930.47;;;5.42;99.37
46944;BME280;32678;43.852;25.952;2022-11-30T01:05:53;101914.03;;;5.53;98.27
46944;BME280;32678;43.852;25.952;2022-11-30T01:10:50;101923.50;;;5.39;98.29
46944;BME280;32678;43.852;25.952;2022-11-30T01:15:49;101907.88;;;5.36;98.49
46944;BME280;32678;43.852;25.952;2022-11-30T01:20:46;101903.53;;;5.35;96.99
46944;BME280;32678;43.852;25.952;2022-11-30T01:25:44;101910.38;;;5.21;99.25
46944;BME280;32678;43.852;25.952;2022-11-30T01:30:55;101887.19;;;5.54;97.46
46944;BME280;32678;43.852;25.952;2022-11-30T01:35:59;101886.97;;;5.21;99.20
46944;BME280;32678;43.852;25.952;2022-11-30T01:40:56;101894.06;;;5.45;98.51
46944;BME280;32678;43.852;25.952;2022-11-30T01:45:55;101884.28;;;5.10;99.73
46944;BME280;32678;43.852;25.952;2022-11-30T01:50:53;101860.78;;;4.92;100.00
46944;BME280;32678;43.852;25.952;2022-11-30T01:55:49;101857.25;;;4.86;100.00
46944;BME280;32678;43.852;25.952;2022-11-30T02:00:46;101877.41;;;5.20;99.87
46944;BME280;32678;43.852;25.952;2022-11-30T02:05:43;101885.94;;;4.98;99.68
46944;BME280;32678;43.852;25.952;2022-11-30T02:10:41;101901.56;;;5.04;100.00
46944;BME280;32678;43.852;25.952;2022-11-30T02:15:41;101897.28;;;5.07;98.35
46944;BME280;32678;43.852;25.952;2022-11-30T02:25:55;101905.97;;;5.14;98.67
46944;BME280;32678;43.852;25.952;2022-11-30T02:31:01;101914.63;;;5.11;97.74
46944;BME280;32678;43.852;25.952;2022-11-30T02:36:02;101912.09;;;5.23;97.07
46944;BME280;32678;43.852;25.952;2022-11-30T02:41:01;101911.31;;;5.32;97.43
46944;BME280;32678;43.852;25.952;2022-11-30T02:46:00;101905.28;;;5.36;96.28
46944;BME280;32678;43.852;25.952;2022-11-30T02:51:01;101911.22;;;5.20;97.74
46944;BME280;32678;43.852;25.952;2022-11-30T02:56:01;101897.28;;;5.10;97.08
46944;BME280;32678;43.852;25.952;2022-11-30T03:01:00;101901.38;;;4.84;98.62
46944;BME280;32678;43.852;25.952;2022-11-30T03:05:57;101893.66;;;4.89;98.82
46944;BME280;32678;43.852;25.952;2022-11-30T03:10:54;101911.94;;;5.04;97.50
46944;BME280;32678;43.852;25.952;2022-11-30T03:15:51;101902.41;;;4.98;97.96
46944;BME280;32678;43.852;25.952;2022-11-30T03:20:48;101924.03;;;4.97;97.72
46944;BME280;32678;43.852;25.952;2022-11-30T03:25:44;101900.69;;;5.02;97.08
46944;BME280;32678;43.852;25.952;2022-11-30T03:30:46;101910.38;;;5.24;96.50
46944;BME280;32678;43.852;25.952;2022-11-30T03:35:43;101916.22;;;4.93;97.16
46944;BME280;32678;43.852;25.952;2022-11-30T03:40:40;101920.56;;;4.97;98.17
46944;BME280;32678;43.852;25.952;2022-11-30T03:45:36;101917.94;;;4.94;98.06
46944;BME280;32678;43.852;25.952;2022-11-30T03:50:34;101910.19;;;4.98;96.96
46944;BME280;32678;43.852;25.952;2022-11-30T03:55:30;101910.84;;;4.76;98.52
46944;BME280;32678;43.852;25.952;2022-11-30T04:00:27;101919.50;;;4.73;98.70
46944;BME280;32678;43.852;25.952;2022-11-30T04:05:23;101915.28;;;4.89;97.23
46944;BME280;32678;43.852;25.952;2022-11-30T04:10:21;101928.47;;;5.09;95.80
46944;BME280;32678;43.852;25.952;2022-11-30T04:15:18;101926.00;;;5.26;94.03
46944;BME280;32678;43.852;25.952;2022-11-30T04:20:15;101930.97;;;4.97;95.49
46944;BME280;32678;43.852;25.952;2022-11-30T04:25:13;101930.19;;;5.10;94.87
46944;BME280;32678;43.852;25.952;2022-11-30T04:30:11;101924.78;;;4.86;96.18
46944;BME280;32678;43.852;25.952;2022-11-30T04:35:08;101933.66;;;5.09;95.95
46944;BME280;32678;43.852;25.952;2022-11-30T04:40:06;101930.91;;;4.94;95.07
46944;BME280;32678;43.852;25.952;2022-11-30T04:45:12;101933.44;;;4.83;94.32
46944;BME280;32678;43.852;25.952;2022-11-30T04:50:09;101936.91;;;4.85;95.15
46944;BME280;32678;43.852;25.952;2022-11-30T04:55:06;101936.94;;;4.84;95.58
46944;BME280;32678;43.852;25.952;2022-11-30T05:00:03;101927.34;;;4.78;95.05
46944;BME280;32678;43.852;25.952;2022-11-30T05:05:03;101911.47;;;4.49;95.48
46944;BME280;32678;43.852;25.952;2022-11-30T05:10:00;101939.38;;;4.71;94.88
46944;BME280;32678;43.852;25.952;2022-11-30T05:14:57;101937.47;;;4.52;95.27
46944;BME280;32678;43.852;25.952;2022-11-30T05:19:54;101949.53;;;4.50;94.94
46944;BME280;32678;43.852;25.952;2022-11-30T05:24:51;101957.56;;;4.70;93.49
46944;BME280;32678;43.852;25.952;2022-11-30T05:29:48;101955.75;;;4.61;93.87
46944;BME280;32678;43.852;25.952;2022-11-30T05:34:45;101964.66;;;4.89;92.42
46944;BME280;32678;43.852;25.952;2022-11-30T05:39:47;101967.38;;;5.00;91.66
46944;BME280;32678;43.852;25.952;2022-11-30T05:44:44;101971.47;;;4.76;92.48
46944;BME280;32678;43.852;25.952;2022-11-30T05:49:43;101991.47;;;4.82;92.46
46944;BME280;32678;43.852;25.952;2022-11-30T05:54:40;101970.50;;;4.64;92.53
46944;BME280;32678;43.852;25.952;2022-11-30T05:59:37;101981.69;;;4.58;93.21
46944;BME280;32678;43.852;25.952;2022-11-30T06:04:34;101990.16;;;4.42;93.89
46944;BME280;32678;43.852;25.952;2022-11-30T06:09:31;102003.16;;;4.44;94.55
46944;BME280;32678;43.852;25.952;2022-11-30T06:14:28;102014.47;;;4.50;94.48
46944;BME280;32678;43.852;25.952;2022-11-30T06:19:25;102037.44;;;4.89;92.25
46944;BME280;32678;43.852;25.952;2022-11-30T06:24:23;102041.94;;;4.30;95.68
46944;BME280;32678;43.852;25.952;2022-11-30T06:29:20;102053.34;;;4.43;94.61
46944;BME280;32678;43.852;25.952;2022-11-30T06:34:17;102056.09;;;4.55;93.77
46944;BME280;32678;43.852;25.952;2022-11-30T06:39:16;102059.69;;;4.66;93.20
46944;BME280;32678;43.852;25.952;2022-11-30T06:44:33;102062.03;;;4.46;93.90
46944;BME280;32678;43.852;25.952;2022-11-30T06:49:30;102047.03;;;4.25;95.34
46944;BME280;32678;43.852;25.952;2022-11-30T06:54:27;102050.69;;;4.38;95.81
46944;BME280;32678;43.852;25.952;2022-11-30T06:59:23;102055.72;;;4.26;97.13
46944;BME280;32678;43.852;25.952;2022-11-30T07:04:21;102042.69;;;4.20;97.55
46944;BME280;32678;43.852;25.952;2022-11-30T07:09:20;102049.44;;;4.09;98.78
46944;BME280;32678;43.852;25.952;2022-11-30T07:14:17;102058.09;;;4.11;98.83
46944;BME280;32678;43.852;25.952;2022-11-30T07:19:14;102065.31;;;4.31;98.29
46944;BME280;32678;43.852;25.952;2022-11-30T07:24:11;102066.47;;;4.53;97.46
46944;BME280;32678;43.852;25.952;2022-11-30T07:29:26;102066.13;;;4.27;97.55
46944;BME280;32678;43.852;25.952;2022-11-30T07:34:48;102065.81;;;4.06;98.43
46944;BME280;32678;43.852;25.952;2022-11-30T07:46:06;102051.22;;;4.13;98.43
46944;BME280;32678;43.852;25.952;2022-11-30T07:51:37;102057.09;;;4.01;97.83
46944;BME280;32678;43.852;25.952;2022-11-30T07:57:07;102066.31;;;4.40;97.32
46944;BME280;32678;43.852;25.952;2022-11-30T08:03:04;102063.38;;;4.15;98.03
46944;BME280;32678;43.852;25.952;2022-11-30T08:09:15;102072.34;;;4.40;96.86
46944;BME280;32678;43.852;25.952;2022-11-30T08:14:33;102067.09;;;4.35;96.92
46944;BME280;32678;43.852;25.952;2022-11-30T08:20:08;102056.53;;;4.22;97.32
46944;BME280;32678;43.852;25.952;2022-11-30T08:25:39;102049.53;;;4.16;97.89
46944;BME280;32678;43.852;25.952;2022-11-30T08:31:32;102064.09;;;4.07;99.14
46944;BME280;32678;43.852;25.952;2022-11-30T08:49:12;102064.94;;;4.06;98.67
46944;BME280;32678;43.852;25.952;2022-11-30T08:54:45;102051.16;;;4.08;98.66
46944;BME280;32678;43.852;25.952;2022-11-30T08:59:43;102065.34;;;4.33;97.45
46944;BME280;32678;43.852;25.952;2022-11-30T09:04:41;102060.06;;;4.27;98.11
46944;BME280;32678;43.852;25.952;2022-11-30T09:09:38;102059.13;;;4.22;97.09
46944;BME280;32678;43.852;25.952;2022-11-30T09:14:35;102065.25;;;4.27;97.45
46944;BME280;32678;43.852;25.952;2022-11-30T09:19:32;102056.09;;;4.56;96.26
46944;BME280;32678;43.852;25.952;2022-11-30T09:24:30;102056.69;;;4.34;96.49
46944;BME280;32678;43.852;25.952;2022-11-30T09:29:27;102044.34;;;4.15;96.88
46944;BME280;32678;43.852;25.952;2022-11-30T09:34:23;102040.00;;;4.17;96.79
46944;BME280;32678;43.852;25.952;2022-11-30T09:39:20;102022.84;;;4.25;96.42
46944;BME280;32678;43.852;25.952;2022-11-30T09:44:22;102023.84;;;4.38;96.94
46944;BME280;32678;43.852;25.952;2022-11-30T09:49:21;102028.97;;;4.30;96.23
46944;BME280;32678;43.852;25.952;2022-11-30T09:54:19;102022.09;;;4.36;95.82
46944;BME280;32678;43.852;25.952;2022-11-30T09:59:22;102028.34;;;4.49;94.69
46944;BME280;32678;43.852;25.952;2022-11-30T10:04:22;102032.75;;;4.58;93.67
46944;BME280;32678;43.852;25.952;2022-11-30T10:09:31;102035.19;;;4.44;93.81
46944;BME280;32678;43.852;25.952;2022-11-30T10:14:35;102047.38;;;4.51;93.53
46944;BME280;32678;43.852;25.952;2022-11-30T10:19:44;102031.78;;;4.48;93.29
46944;BME280;32678;43.852;25.952;2022-11-30T10:24:48;102036.03;;;4.42;93.45
46944;BME280;32678;43.852;25.952;2022-11-30T10:29:52;102023.16;;;4.49;92.26
46944;BME280;32678;43.852;25.952;2022-11-30T10:34:53;102023.41;;;4.72;91.81
46944;BME280;32678;43.852;25.952;2022-11-30T10:39:55;102017.91;;;4.46;92.87
46944;BME280;32678;43.852;25.952;2022-11-30T10:44:57;102008.94;;;5.00;91.41
46944;BME280;32678;43.852;25.952;2022-11-30T10:49:56;102005.28;;;4.78;92.43
46944;BME280;32678;43.852;25.952;2022-11-30T10:54:53;102008.09;;;4.98;91.23
46944;BME280;32678;43.852;25.952;2022-11-30T10:59:58;101999.78;;;4.52;93.21
46944;BME280;32678;43.852;25.952;2022-11-30T11:05:07;101988.50;;;4.49;91.96
46944;BME280;32678;43.852;25.952;2022-11-30T11:10:04;101987.09;;;4.78;91.05
46944;BME280;32678;43.852;25.952;2022-11-30T11:15:07;101982.88;;;4.88;90.29
46944;BME280;32678;43.852;25.952;2022-11-30T11:20:05;101981.91;;;4.81;90.33
46944;BME280;32678;43.852;25.952;2022-11-30T11:25:33;101978.38;;;4.74;89.97
46944;BME280;32678;43.852;25.952;2022-11-30T11:30:32;101975.69;;;4.64;90.46
46944;BME280;32678;43.852;25.952;2022-11-30T11:35:34;101992.34;;;4.84;90.05
46944;BME280;32678;43.852;25.952;2022-11-30T11:40:31;101990.69;;;4.92;89.36
46944;BME280;32678;43.852;25.952;2022-11-30T11:45:31;101991.28;;;4.64;90.73
46944;BME280;32678;43.852;25.952;2022-11-30T11:50:32;101994.84;;;4.75;90.34
46944;BME280;32678;43.852;25.952;2022-11-30T11:55:52;101986.28;;;4.85;90.68
46944;BME280;32678;43.852;25.952;2022-11-30T12:00:50;101989.72;;;4.81;89.76
46944;BME280;32678;43.852;25.952;2022-11-30T12:06:09;101999.88;;;4.60;90.08
46944;BME280;32678;43.852;25.952;2022-11-30T12:11:12;101997.22;;;4.55;91.28
46944;BME280;32678;43.852;25.952;2022-11-30T12:16:18;101992.28;;;4.76;90.10
46944;BME280;32678;43.852;25.952;2022-11-30T12:21:20;101998.06;;;4.53;91.43
46944;BME280;32678;43.852;25.952;2022-11-30T12:26:24;101995.69;;;4.72;91.36
46944;BME280;32678;43.852;25.952;2022-11-30T12:31:25;101990.69;;;4.91;89.90
46944;BME280;32678;43.852;25.952;2022-11-30T12:36:27;102000.00;;;4.70;91.21
46944;BME280;32678;43.852;25.952;2022-11-30T12:41:30;102009.50;;;4.67;90.95
46944;BME280;32678;43.852;25.952;2022-11-30T12:46:31;102002.72;;;4.83;90.03
46944;BME280;32678;43.852;25.952;2022-11-30T12:51:37;102009.38;;;4.58;91.25
46944;BME280;32678;43.852;25.952;2022-11-30T12:56:46;102007.06;;;4.82;90.69
46944;BME280;32678;43.852;25.952;2022-11-30T13:01:49;102009.63;;;4.80;89.78
46944;BME280;32678;43.852;25.952;2022-11-30T13:06:51;102024.22;;;4.68;90.41
46944;BME280;32678;43.852;25.952;2022-11-30T13:11:50;102013.97;;;4.78;90.25
46944;BME280;32678;43.852;25.952;2022-11-30T13:16:53;102021.78;;;4.82;89.68
46944;BME280;32678;43.852;25.952;2022-11-30T13:21:52;102016.31;;;4.60;90.31
46944;BME280;32678;43.852;25.952;2022-11-30T13:26:53;102005.34;;;4.86;89.82
46944;BME280;32678;43.852;25.952;2022-11-30T13:31:52;102017.31;;;4.68;89.72
46944;BME280;32678;43.852;25.952;2022-11-30T13:36:53;102020.69;;;4.63;89.04
46944;BME280;32678;43.852;25.952;2022-11-30T13:47:28;102028.72;;;4.84;89.28
46944;BME280;32678;43.852;25.952;2022-11-30T14:03:00;102046.84;;;4.79;90.03
46944;BME280;32678;43.852;25.952;2022-11-30T14:13:33;102042.47;;;4.75;90.20
46944;BME280;32678;43.852;25.952;2022-11-30T14:18:40;102053.03;;;4.91;89.97
46944;BME280;32678;43.852;25.952;2022-11-30T14:23:40;102051.06;;;4.68;89.83
46944;BME280;32678;43.852;25.952;2022-11-30T14:28:41;102064.22;;;4.82;88.68
46944;BME280;32678;43.852;25.952;2022-11-30T14:33:40;102063.84;;;4.52;90.18
46944;BME280;32678;43.852;25.952;2022-11-30T14:38:39;102059.72;;;4.67;90.07
46944;BME280;32678;43.852;25.952;2022-11-30T14:43:36;102047.50;;;4.59;90.01
46944;BME280;32678;43.852;25.952;2022-11-30T14:48:33;102065.97;;;4.83;88.71
46944;BME280;32678;43.852;25.952;2022-11-30T14:53:34;102068.28;;;4.60;89.24
46944;BME280;32678;43.852;25.952;2022-11-30T14:58:36;102069.06;;;4.55;89.73
46944;BME280;32678;43.852;25.952;2022-11-30T15:03:36;102056.06;;;4.52;89.54
46944;BME280;32678;43.852;25.952;2022-11-30T15:08:37;102068.13;;;4.48;90.47
46944;BME280;32678;43.852;25.952;2022-11-30T15:13:37;102068.38;;;4.68;89.58
46944;BME280;32678;43.852;25.952;2022-11-30T15:18:37;102084.69;;;4.56;91.08
46944;BME280;32678;43.852;25.952;2022-11-30T15:23:34;102072.38;;;4.42;92.20
46944;BME280;32678;43.852;25.952;2022-11-30T15:28:32;102078.28;;;4.30;92.93
46944;BME280;32678;43.852;25.952;2022-11-30T15:33:33;102085.50;;;4.52;91.88
46944;BME280;32678;43.852;25.952;2022-11-30T15:38:33;102083.75;;;4.51;91.79
46944;BME280;32678;43.852;25.952;2022-11-30T15:43:31;102085.19;;;4.28;93.16
46944;BME280;32678;43.852;25.952;2022-11-30T15:48:41;102089.59;;;4.35;92.83
46944;BME280;32678;43.852;25.952;2022-11-30T15:53:47;102079.28;;;4.40;92.84
46944;BME280;32678;43.852;25.952;2022-11-30T15:58:58;102071.06;;;4.11;92.82
46944;BME280;32678;43.852;25.952;2022-11-30T16:04:03;102072.59;;;3.95;93.82
46944;BME280;32678;43.852;25.952;2022-11-30T16:09:03;102062.88;;;3.83;93.78
46944;BME280;32678;43.852;25.952;2022-11-30T16:14:01;102072.00;;;4.14;93.08
46944;BME280;32678;43.852;25.952;2022-11-30T16:18:58;102069.41;;;4.16;91.34
46944;BME280;32678;43.852;25.952;2022-11-30T16:23:56;102067.38;;;3.93;91.53
46944;BME280;32678;43.852;25.952;2022-11-30T16:28:53;102057.66;;;3.80;92.83
46944;BME280;32678;43.852;25.952;2022-11-30T16:33:50;102064.94;;;4.06;91.86
46944;BME280;32678;43.852;25.952;2022-11-30T16:38:57;102066.84;;;4.17;91.01
46944;BME280;32678;43.852;25.952;2022-11-30T16:43:55;102078.88;;;4.12;91.79
46944;BME280;32678;43.852;25.952;2022-11-30T16:48:53;102057.28;;;4.13;91.02
46944;BME280;32678;43.852;25.952;2022-11-30T16:53:50;102074.78;;;4.28;90.75
46944;BME280;32678;43.852;25.952;2022-11-30T16:58:48;102074.41;;;4.01;89.76
46944;BME280;32678;43.852;25.952;2022-11-30T17:03:45;102087.44;;;4.07;89.49
46944;BME280;32678;43.852;25.952;2022-11-30T17:08:44;102094.47;;;4.12;88.98
46944;BME280;32678;43.852;25.952;2022-11-30T17:13:40;102077.88;;;4.03;89.77
46944;BME280;32678;43.852;25.952;2022-11-30T17:18:38;102104.69;;;4.00;90.16
46944;BME280;32678;43.852;25.952;2022-11-30T17:23:35;102088.91;;;3.88;90.72
46944;BME280;32678;43.852;25.952;2022-11-30T17:28:32;102099.22;;;3.83;91.76
46944;BME280;32678;43.852;25.952;2022-11-30T17:33:29;102084.03;;;4.11;91.11
46944;BME280;32678;43.852;25.952;2022-11-30T17:38:30;102083.94;;;4.03;91.21
46944;BME280;32678;43.852;25.952;2022-11-30T17:43:27;102086.56;;;4.05;91.60
46944;BME280;32678;43.852;25.952;2022-11-30T17:48:26;102087.84;;;3.77;93.52
46944;BME280;32678;43.852;25.952;2022-11-30T17:53:25;102081.84;;;3.79;92.90
46944;BME280;32678;43.852;25.952;2022-11-30T17:58:23;102071.41;;;3.75;92.74
46944;BME280;32678;43.852;25.952;2022-11-30T18:03:20;102103.03;;;4.07;92.20
46944;BME280;32678;43.852;25.952;2022-11-30T18:08:16;102112.28;;;3.91;91.84
46944;BME280;32678;43.852;25.952;2022-11-30T18:13:13;102110.72;;;3.99;91.43
46944;BME280;32678;43.852;25.952;2022-11-30T18:18:13;102127.56;;;4.27;90.06
46944;BME280;32678;43.852;25.952;2022-11-30T18:23:10;102100.88;;;3.80;90.60
46944;BME280;32678;43.852;25.952;2022-11-30T18:28:07;102123.72;;;4.02;90.63
46944;BME280;32678;43.852;25.952;2022-11-30T18:33:03;102127.38;;;4.16;90.72
46944;BME280;32678;43.852;25.952;2022-11-30T18:38:01;102111.19;;;3.75;90.75
46944;BME280;32678;43.852;25.952;2022-11-30T18:42:57;102126.03;;;3.84;91.03
46944;BME280;32678;43.852;25.952;2022-11-30T18:47:54;102129.03;;;4.11;89.93
46944;BME280;32678;43.852;25.952;2022-11-30T18:52:51;102099.84;;;3.69;90.62
46944;BME280;32678;43.852;25.952;2022-11-30T18:57:51;102113.41;;;4.07;90.15
46944;BME280;32678;43.852;25.952;2022-11-30T19:02:50;102132.97;;;3.86;90.82
46944;BME280;32678;43.852;25.952;2022-11-30T19:07:47;102121.31;;;4.14;89.14
46944;BME280;32678;43.852;25.952;2022-11-30T19:12:44;102128.03;;;4.00;89.45
46944;BME280;32678;43.852;25.952;2022-11-30T19:17:42;102116.69;;;3.97;89.46
46944;BME280;32678;43.852;25.952;2022-11-30T19:22:40;102110.78;;;4.04;88.97
46944;BME280;32678;43.852;25.952;2022-11-30T19:27:37;102116.47;;;4.40;88.12
46944;BME280;32678;43.852;25.952;2022-11-30T19:32:34;102092.44;;;3.93;88.26
46944;BME280;32678;43.852;25.952;2022-11-30T19:37:32;102121.22;;;4.08;88.51
46944;BME280;32678;43.852;25.952;2022-11-30T19:42:28;102125.56;;;4.11;88.54
46944;BME280;32678;43.852;25.952;2022-11-30T19:47:26;102121.81;;;4.51;86.95
46944;BME280;32678;43.852;25.952;2022-11-30T19:52:22;102121.69;;;4.40;87.57
46944;BME280;32678;43.852;25.952;2022-11-30T19:57:20;102111.66;;;4.06;89.33
46944;BME280;32678;43.852;25.952;2022-11-30T20:02:16;102126.25;;;3.98;89.96
46944;BME280;32678;43.852;25.952;2022-11-30T20:07:13;102133.78;;;3.81;90.66
46944;BME280;32678;43.852;25.952;2022-11-30T20:12:10;102131.50;;;4.01;90.33
46944;BME280;32678;43.852;25.952;2022-11-30T20:17:07;102138.00;;;3.77;90.87
46944;BME280;32678;43.852;25.952;2022-11-30T20:22:04;102132.19;;;3.90;90.22
46944;BME280;32678;43.852;25.952;2022-11-30T20:27:04;102134.94;;;4.01;89.85
46944;BME280;32678;43.852;25.952;2022-11-30T20:32:01;102139.16;;;3.93;89.22
46944;BME280;32678;43.852;25.952;2022-11-30T20:37:00;102131.88;;;3.71;89.59
46944;BME280;32678;43.852;25.952;2022-11-30T20:41:57;102149.56;;;3.96;89.12
46944;BME280;32678;43.852;25.952;2022-11-30T20:46:53;102151.81;;;3.76;90.19
46944;BME280;32678;43.852;25.952;2022-11-30T20:51:51;102142.25;;;3.71;90.90
46944;BME280;32678;43.852;25.952;2022-11-30T20:56:48;102143.63;;;3.51;91.59
46944;BME280;32678;43.852;25.952;2022-11-30T21:01:47;102142.06;;;3.60;91.35
46944;BME280;32678;43.852;25.952;2022-11-30T21:06:43;102133.25;;;3.52;92.65
46944;BME280;32678;43.852;25.952;2022-11-30T21:11:41;102136.44;;;3.87;90.75
46944;BME280;32678;43.852;25.952;2022-11-30T21:16:40;102133.34;;;3.58;92.08
46944;BME280;32678;43.852;25.952;2022-11-30T21:21:40;102137.66;;;3.58;92.28
46944;BME280;32678;43.852;25.952;2022-11-30T21:26:39;102133.75;;;3.31;93.58
46944;BME280;32678;43.852;25.952;2022-11-30T21:31:36;102136.63;;;3.46;93.26
46944;BME280;32678;43.852;25.952;2022-11-30T21:36:34;102126.78;;;3.27;93.27
46944;BME280;32678;43.852;25.952;2022-11-30T21:41:31;102125.06;;;3.29;93.11
46944;BME280;32678;43.852;25.952;2022-11-30T21:46:29;102120.16;;;3.44;91.83
46944;BME280;32678;43.852;25.952;2022-11-30T21:51:27;102139.25;;;3.49;90.75
46944;BME280;32678;43.852;25.952;2022-11-30T21:56:25;102135.78;;;3.49;90.83
46944;BME280;32678;43.852;25.952;2022-11-30T22:01:23;102134.00;;;3.45;89.25
46944;BME280;32678;43.852;25.952;2022-11-30T22:06:21;102133.66;;;3.75;87.69
46944;BME280;32678;43.852;25.952;2022-11-30T22:11:18;102136.22;;;3.73;87.32
46944;BME280;32678;43.852;25.952;2022-11-30T22:16:16;102140.94;;;3.46;88.27
46944;BME280;32678;43.852;25.952;2022-11-30T22:21:13;102141.91;;;3.51;88.49
46944;BME280;32678;43.852;25.952;2022-11-30T22:26:11;102144.25;;;3.39;88.34
46944;BME280;32678;43.852;25.952;2022-11-30T22:31:09;102150.63;;;3.56;87.92
46944;BME280;32678;43.852;25.952;2022-11-30T22:36:10;102148.72;;;3.46;87.79
46944;BME280;32678;43.852;25.952;2022-11-30T22:41:09;102140.31;;;3.59;87.71
46944;BME280;32678;43.852;25.952;2022-11-30T22:46:06;102130.09;;;3.68;87.47
46944;BME280;32678;43.852;25.952;2022-11-30T22:51:05;102127.75;;;3.34;88.19
46944;BME280;32678;43.852;25.952;2022-11-30T22:56:03;102118.41;;;3.43;87.74
46944;BME280;32678;43.852;25.952;2022-11-30T23:01:08;102125.56;;;3.10;89.27
46944;BME280;32678;43.852;25.952;2022-11-30T23:06:08;102115.16;;;3.07;89.68
46944;BME280;32678;43.852;25.952;2022-11-30T23:11:07;102115.38;;;3.19;88.66
46944;BME280;32678;43.852;25.952;2022-11-30T23:16:04;102110.84;;;3.08;88.38
46944;BME280;32678;43.852;25.952;2022-11-30T23:21:05;102104.13;;;3.17;87.19
46944;BME280;32678;43.852;25.952;2022-11-30T23:26:09;102095.72;;;3.30;86.78
46944;BME280;32678;43.852;25.952;2022-11-30T23:31:07;102110.44;;;3.33;87.40
46944;BME280;32678;43.852;25.952;2022-11-30T23:36:08;102105.97;;;3.24;87.45
46944;BME280;32678;43.852;25.952;2022-11-30T23:41:05;102109.41;;;3.73;86.01
46944;BME280;32678;43.852;25.952;2022-11-30T23:46:05;102108.06;;;3.45;86.96
46944;BME280;32678;43.852;25.952;2022-11-30T23:51:01;102115.88;;;3.46;85.66
46944;BME280;32678;43.852;25.952;2022-11-30T23:56:00;102128.56;;;3.33;86.14
